createdAt,value
2018-01-18T00:01:59.690Z,4.49
2018-01-18T00:04:27.166Z,4.48
2018-01-18T00:06:54.619Z,4.55
2018-01-18T00:09:22.090Z,4.59
2018-01-18T00:11:49.549Z,4.64
2018-01-18T00:14:17.021Z,4.69
2018-01-18T00:16:44.478Z,4.70
2018-01-18T00:19:11.950Z,4.72
2018-01-18T00:21:39.394Z,4.70
2018-01-18T00:24:06.864Z,4.62
2018-01-18T00:26:34.315Z,4.62
2018-01-18T00:29:01.796Z,4.56
2018-01-18T00:31:29.246Z,4.58
2018-01-18T00:33:56.714Z,4.65
2018-01-18T00:36:24.174Z,4.70
2018-01-18T00:38:51.641Z,4.71
2018-01-18T00:41:19.097Z,4.66
2018-01-18T00:43:46.561Z,4.58
2018-01-18T00:46:14.011Z,4.50
2018-01-18T00:48:41.488Z,4.50
2018-01-18T00:51:08.930Z,4.39
2018-01-18T00:53:36.406Z,4.30
2018-01-18T00:56:03.849Z,4.23
2018-01-18T00:58:31.319Z,4.18
2018-01-18T01:00:58.798Z,4.14
2018-01-18T01:03:26.264Z,4.03
2018-01-18T01:05:53.720Z,3.93
2018-01-18T01:08:21.198Z,3.95
2018-01-18T01:10:48.647Z,3.89
2018-01-18T01:13:16.106Z,3.95
2018-01-18T01:15:43.576Z,4.00
2018-01-18T01:18:11.052Z,4.05
2018-01-18T01:20:38.518Z,4.09
2018-01-18T01:23:05.978Z,4.25
2018-01-18T01:25:33.444Z,4.43
2018-01-18T01:28:00.896Z,4.41
2018-01-18T01:30:28.367Z,4.44
2018-01-18T01:32:55.811Z,4.55
2018-01-18T01:35:23.288Z,4.57
2018-01-18T01:37:50.739Z,4.60
2018-01-18T01:40:18.226Z,4.69
2018-01-18T01:42:45.671Z,4.71
2018-01-18T01:45:13.142Z,4.72
2018-01-18T01:47:40.595Z,4.83
2018-01-18T01:50:08.067Z,4.91
2018-01-18T01:52:35.527Z,4.90
2018-01-18T01:55:03.089Z,4.88
2018-01-18T01:57:30.530Z,4.92
2018-01-18T01:59:58.003Z,4.84
2018-01-18T02:02:25.463Z,4.75
2018-01-18T02:04:52.939Z,4.67
2018-01-18T02:07:20.390Z,4.63
2018-01-18T02:09:47.862Z,4.55
2018-01-18T02:12:15.318Z,4.54
2018-01-18T02:14:42.790Z,4.52
2018-01-18T02:17:10.230Z,4.60
2018-01-18T02:19:37.696Z,4.68
2018-01-18T02:22:05.143Z,4.70
2018-01-18T02:24:32.614Z,4.70
2018-01-18T02:27:00.111Z,4.71
2018-01-18T02:29:27.575Z,4.71
2018-01-18T02:31:55.018Z,4.67
2018-01-18T02:34:22.491Z,4.63
2018-01-18T02:36:49.955Z,4.59
2018-01-18T02:39:17.411Z,4.64
2018-01-18T02:41:44.895Z,4.65
2018-01-18T02:44:12.350Z,4.64
2018-01-18T02:46:39.819Z,4.62
2018-01-18T02:49:07.311Z,4.66
2018-01-18T02:51:34.791Z,4.76
2018-01-18T02:54:02.254Z,4.82
2018-01-18T02:56:29.732Z,4.83
2018-01-18T02:58:57.178Z,4.88
2018-01-18T03:01:24.642Z,4.95
2018-01-18T03:03:52.094Z,5.02
2018-01-18T03:06:19.566Z,4.98
2018-01-18T03:08:47.103Z,4.95
2018-01-18T03:11:14.570Z,4.95
2018-01-18T03:13:42.018Z,5.00
2018-01-18T03:16:09.494Z,4.96
2018-01-18T03:18:36.938Z,4.95
2018-01-18T03:21:04.405Z,4.98
2018-01-18T03:23:31.850Z,4.97
2018-01-18T03:25:59.322Z,4.93
2018-01-18T03:28:26.778Z,4.87
2018-01-18T03:30:54.244Z,4.89
2018-01-18T03:33:21.702Z,4.87
2018-01-18T03:35:49.179Z,4.85
2018-01-18T03:38:16.632Z,4.77
2018-01-18T03:40:44.111Z,4.82
2018-01-18T03:43:11.558Z,4.69
2018-01-18T03:45:39.033Z,4.77
2018-01-18T03:48:06.493Z,4.67
2018-01-18T03:50:33.959Z,4.60
2018-01-18T03:53:01.450Z,4.73
2018-01-18T03:55:28.923Z,4.56
2018-01-18T03:57:56.402Z,4.54
2018-01-18T04:00:23.851Z,4.61
2018-01-18T04:02:51.326Z,4.63
2018-01-18T04:05:18.775Z,4.62
2018-01-18T04:07:46.250Z,4.64
2018-01-18T04:10:13.702Z,4.68
2018-01-18T04:12:41.174Z,4.65
2018-01-18T04:15:08.626Z,4.64
2018-01-18T04:17:36.103Z,4.57
2018-01-18T04:20:03.556Z,4.57
2018-01-18T04:22:31.025Z,4.49
2018-01-18T04:24:58.480Z,4.47
2018-01-18T04:27:25.953Z,4.48
2018-01-18T04:29:53.408Z,4.42
2018-01-18T04:32:20.875Z,4.45
2018-01-18T04:34:48.326Z,4.47
2018-01-18T04:37:15.799Z,4.68
2018-01-18T04:39:43.251Z,4.69
2018-01-18T04:42:10.724Z,4.79
2018-01-18T04:44:38.171Z,4.84
2018-01-18T04:47:05.723Z,4.87
2018-01-18T04:49:33.176Z,4.92
2018-01-18T04:52:00.647Z,4.98
2018-01-18T04:54:28.110Z,5.05
2018-01-18T04:56:55.585Z,5.20
2018-01-18T04:59:23.038Z,5.25
2018-01-18T05:01:50.515Z,5.29
2018-01-18T05:04:17.987Z,5.37
2018-01-18T05:06:45.470Z,5.45
2018-01-18T05:09:12.934Z,5.46
2018-01-18T05:11:40.407Z,5.39
2018-01-18T05:14:07.861Z,5.36
2018-01-18T05:16:35.334Z,5.32
2018-01-18T05:19:02.782Z,5.28
2018-01-18T05:21:30.244Z,5.29
2018-01-18T05:23:57.722Z,5.24
2018-01-18T05:26:25.174Z,5.26
2018-01-18T05:28:52.642Z,5.29
2018-01-18T05:31:20.095Z,5.24
2018-01-18T05:33:47.558Z,5.30
2018-01-18T05:36:15.013Z,5.29
2018-01-18T05:38:42.478Z,5.38
2018-01-18T05:41:10.882Z,5.45
2018-01-18T05:43:38.343Z,5.50
2018-01-18T05:46:05.795Z,5.61
2018-01-18T05:48:33.267Z,5.61
2018-01-18T05:51:00.715Z,5.66
2018-01-18T05:53:28.194Z,5.72
2018-01-18T05:55:55.661Z,5.66
2018-01-18T05:58:23.141Z,5.58
2018-01-18T06:00:50.590Z,5.66
2018-01-18T06:03:18.056Z,5.66
2018-01-18T06:05:45.499Z,5.64
2018-01-18T06:08:12.974Z,5.79
2018-01-18T06:10:40.429Z,5.91
2018-01-18T06:13:07.894Z,5.98
2018-01-18T06:15:35.343Z,6.06
2018-01-18T06:18:02.820Z,6.15
2018-01-18T06:20:30.267Z,6.35
2018-01-18T06:22:57.753Z,6.43
2018-01-18T06:25:25.215Z,6.48
2018-01-18T06:27:52.699Z,6.48
2018-01-18T06:30:20.155Z,6.46
2018-01-18T06:32:47.622Z,6.52
2018-01-18T06:35:15.153Z,6.52
2018-01-18T06:37:42.621Z,6.55
2018-01-18T06:40:10.075Z,6.53
2018-01-18T06:45:11.264Z,6.58
2018-01-18T06:47:38.738Z,6.68
2018-01-18T06:50:06.193Z,6.71
2018-01-18T06:52:33.641Z,6.75
2018-01-18T06:55:01.107Z,6.85
2018-01-18T06:57:28.565Z,6.86
2018-01-18T06:59:56.042Z,6.99
2018-01-18T07:02:23.494Z,7.14
2018-01-18T07:04:50.968Z,7.12
2018-01-18T07:07:18.418Z,7.21
2018-01-18T07:09:45.894Z,7.22
2018-01-18T07:12:13.350Z,7.29
2018-01-18T07:14:40.814Z,7.29
2018-01-18T07:17:08.258Z,7.41
2018-01-18T07:19:35.747Z,7.49
2018-01-18T07:22:03.202Z,7.60
2018-01-18T07:24:30.687Z,7.63
2018-01-18T07:26:58.138Z,7.55
2018-01-18T07:29:25.617Z,7.53
2018-01-18T07:31:53.075Z,7.66
2018-01-18T07:34:20.600Z,7.67
2018-01-18T07:36:48.014Z,7.65
2018-01-18T07:39:15.479Z,7.72
2018-01-18T07:41:43.030Z,7.65
2018-01-18T07:44:10.498Z,7.94
2018-01-18T07:46:37.954Z,7.93
2018-01-18T07:49:05.436Z,7.96
2018-01-18T07:51:32.891Z,8.13
2018-01-18T07:54:00.500Z,8.29
2018-01-18T07:56:27.950Z,8.41
2018-01-18T07:58:55.477Z,8.43
2018-01-18T08:01:22.930Z,8.60
2018-01-18T08:03:56.082Z,8.68
2018-01-18T08:06:23.542Z,8.72
2018-01-18T08:08:51.012Z,8.97
2018-01-18T08:11:18.462Z,9.02
2018-01-18T08:13:45.919Z,9.19
2018-01-18T08:16:13.399Z,9.34
2018-01-18T08:18:40.868Z,9.46
2018-01-18T08:21:08.350Z,9.67
2018-01-18T08:23:35.806Z,9.84
2018-01-18T08:26:03.275Z,9.95
2018-01-18T08:28:30.731Z,10.07
2018-01-18T08:30:58.207Z,10.03
2018-01-18T08:33:25.672Z,10.21
2018-01-18T08:35:53.170Z,10.14
2018-01-18T08:38:20.636Z,10.23
2018-01-18T08:40:48.126Z,10.29
2018-01-18T08:43:16.183Z,10.13
2018-01-18T08:45:43.675Z,10.12
2018-01-18T08:48:11.131Z,10.37
2018-01-18T08:50:38.617Z,10.40
2018-01-18T08:53:06.075Z,10.37
2018-01-18T08:55:33.550Z,10.17
2018-01-18T08:58:01.010Z,10.28
2018-01-18T09:00:28.486Z,10.36
2018-01-18T09:02:55.946Z,10.47
2018-01-18T09:05:23.434Z,10.70
2018-01-18T09:07:50.890Z,10.85
2018-01-18T09:10:18.371Z,11.07
2018-01-18T09:12:45.828Z,11.22
2018-01-18T09:15:13.319Z,11.34
2018-01-18T09:17:40.787Z,11.30
2018-01-18T09:20:08.267Z,11.47
2018-01-18T09:22:35.722Z,11.41
2018-01-18T09:25:03.211Z,11.42
2018-01-18T09:27:30.683Z,11.48
2018-01-18T09:29:58.175Z,11.54
2018-01-18T09:32:25.639Z,11.62
2018-01-18T09:34:53.133Z,11.67
2018-01-18T09:37:20.597Z,11.58
2018-01-18T09:39:48.059Z,11.52
2018-01-18T09:42:15.551Z,11.64
2018-01-18T09:44:43.015Z,11.64
2018-01-18T09:47:10.498Z,11.53
2018-01-18T09:49:37.975Z,11.41
2018-01-18T09:52:05.462Z,11.58
2018-01-18T09:54:32.926Z,11.62
2018-01-18T09:57:00.406Z,11.44
2018-01-18T09:59:27.882Z,11.43
2018-01-18T10:01:55.351Z,11.46
2018-01-18T10:04:22.807Z,11.45
2018-01-18T10:06:50.295Z,11.42
2018-01-18T10:09:17.774Z,11.34
2018-01-18T10:11:45.260Z,11.34
2018-01-18T10:14:12.730Z,11.15
2018-01-18T10:16:40.208Z,11.03
2018-01-18T10:19:07.694Z,11.04
2018-01-18T10:21:36.099Z,11.09
2018-01-18T10:24:03.558Z,11.07
2018-01-18T10:26:31.046Z,11.03
2018-01-18T10:28:58.515Z,11.07
2018-01-18T10:31:26.027Z,11.23
2018-01-18T10:33:53.667Z,11.26
2018-01-18T10:36:21.150Z,11.21
2018-01-18T10:38:48.610Z,11.06
2018-01-18T10:41:16.094Z,11.03
2018-01-18T10:43:43.550Z,10.79
2018-01-18T10:46:11.031Z,10.71
2018-01-18T10:48:40.458Z,10.75
2018-01-18T10:51:07.942Z,10.73
2018-01-18T10:53:35.417Z,10.49
2018-01-18T10:56:02.913Z,10.48
2018-01-18T10:58:30.384Z,10.45
2018-01-18T11:00:57.867Z,10.39
2018-01-18T11:03:25.350Z,10.14
2018-01-18T11:05:52.811Z,10.21
2018-01-18T11:08:20.299Z,10.25
2018-01-18T11:10:47.755Z,10.18
2018-01-18T11:13:15.248Z,10.09
2018-01-18T11:15:42.715Z,9.95
2018-01-18T11:18:10.187Z,9.85
2018-01-18T11:20:37.640Z,9.71
2018-01-18T11:23:05.130Z,9.50
2018-01-18T11:25:32.587Z,9.30
2018-01-18T11:28:00.142Z,9.18
2018-01-18T11:30:27.591Z,9.25
2018-01-18T11:32:55.066Z,9.21
2018-01-18T11:35:23.292Z,9.21
2018-01-18T11:37:50.771Z,9.19
2018-01-18T11:40:18.223Z,9.19
2018-01-18T11:42:45.694Z,9.29
2018-01-18T11:45:13.156Z,9.30
2018-01-18T11:47:40.644Z,9.32
2018-01-18T11:50:08.142Z,9.37
2018-01-18T11:52:35.629Z,9.39
2018-01-18T11:55:03.084Z,9.26
2018-01-18T11:57:30.559Z,9.30
2018-01-18T11:59:58.035Z,9.17
2018-01-18T12:02:25.523Z,9.11
2018-01-18T12:04:52.981Z,9.05
2018-01-18T12:07:20.466Z,9.01
2018-01-18T12:09:47.922Z,9.03
2018-01-18T12:12:15.419Z,9.24
2018-01-18T12:14:42.880Z,9.24
2018-01-18T12:17:10.360Z,9.15
2018-01-18T12:19:37.823Z,9.12
2018-01-18T12:22:05.317Z,9.03
2018-01-18T12:24:32.791Z,9.07
2018-01-18T12:27:00.278Z,9.16
2018-01-18T12:29:27.735Z,8.87
2018-01-18T12:31:55.191Z,8.65
2018-01-18T12:34:22.661Z,8.59
2018-01-18T12:36:50.134Z,8.46
2018-01-18T12:39:17.623Z,8.29
2018-01-18T12:41:45.084Z,8.33
2018-01-18T12:44:12.558Z,8.34
2018-01-18T12:46:40.019Z,8.21
2018-01-18T12:49:07.491Z,8.21
2018-01-18T12:51:34.942Z,8.18
2018-01-18T12:54:02.422Z,8.17
2018-01-18T12:56:29.870Z,8.19
2018-01-18T12:58:57.411Z,8.15
2018-01-18T13:01:24.863Z,8.13
2018-01-18T13:03:52.352Z,8.01
2018-01-18T13:06:19.808Z,7.92
2018-01-18T13:08:47.301Z,7.97
2018-01-18T13:11:14.883Z,7.91
2018-01-18T13:13:42.377Z,7.91
2018-01-18T13:16:10.597Z,7.96
2018-01-18T13:18:38.148Z,8.10
2018-01-18T13:21:05.687Z,8.16
2018-01-18T13:23:33.274Z,8.29
2018-01-18T13:26:00.754Z,8.36
2018-01-18T13:28:28.243Z,8.43
2018-01-18T13:30:55.706Z,8.50
2018-01-18T13:33:23.327Z,8.51
2018-01-18T13:35:50.871Z,8.63
2018-01-18T13:38:18.406Z,8.67
2018-01-18T13:40:45.880Z,8.64
2018-01-18T13:43:13.492Z,8.81
2018-01-18T13:45:41.016Z,8.88
2018-01-18T13:48:09.046Z,8.77
2018-01-18T13:50:36.516Z,8.82
2018-01-18T13:53:03.999Z,8.31
2018-01-18T13:55:31.465Z,8.13
2018-01-18T13:57:58.918Z,8.10
2018-01-18T14:00:26.386Z,7.90
2018-01-18T14:02:53.840Z,7.74
2018-01-18T14:05:21.326Z,7.61
2018-01-18T14:07:48.925Z,7.55
2018-01-18T14:10:16.438Z,7.52
2018-01-18T14:12:43.888Z,7.51
2018-01-18T14:15:11.361Z,7.47
2018-01-18T14:17:38.816Z,7.44
2018-01-18T14:20:06.299Z,7.36
2018-01-18T14:22:33.752Z,7.34
2018-01-18T14:25:01.263Z,7.23
2018-01-18T14:27:28.787Z,7.13
2018-01-18T14:29:56.282Z,7.08
2018-01-18T14:32:23.738Z,7.07
2018-01-18T14:34:51.218Z,7.21
2018-01-18T14:37:18.671Z,7.22
2018-01-18T14:39:46.152Z,7.34
2018-01-18T14:42:13.610Z,7.32
2018-01-18T14:44:41.083Z,7.39
2018-01-18T14:47:08.540Z,7.27
2018-01-18T14:49:36.007Z,7.27
2018-01-18T14:52:03.459Z,7.27
2018-01-18T14:54:30.941Z,7.22
2018-01-18T14:56:58.402Z,7.10
2018-01-18T14:59:25.885Z,7.00
2018-01-18T15:01:53.347Z,6.98
2018-01-18T15:04:20.810Z,6.95
2018-01-18T15:06:48.310Z,6.93
2018-01-18T15:09:15.787Z,6.85
2018-01-18T15:11:43.242Z,6.88
2018-01-18T15:14:10.715Z,6.78
2018-01-18T15:16:38.191Z,6.74
2018-01-18T15:19:05.659Z,6.76
2018-01-18T15:21:33.127Z,6.75
2018-01-18T15:24:00.574Z,6.75
2018-01-18T15:26:28.057Z,6.75
2018-01-18T15:28:55.507Z,6.77
2018-01-18T15:31:23.050Z,6.79
2018-01-18T15:33:50.511Z,6.85
2018-01-18T15:36:17.978Z,6.78
2018-01-18T15:38:45.435Z,6.72
2018-01-18T15:41:12.907Z,6.63
2018-01-18T15:43:40.432Z,6.59
2018-01-18T15:46:07.908Z,6.57
2018-01-18T15:48:35.362Z,6.47
2018-01-18T15:51:02.888Z,6.43
2018-01-18T15:53:32.511Z,6.39
2018-01-18T15:55:59.983Z,6.39
2018-01-18T15:58:27.442Z,6.37
2018-01-18T16:00:54.906Z,6.34
2018-01-18T16:03:22.353Z,6.35
2018-01-18T16:05:50.055Z,6.33
2018-01-18T16:08:17.750Z,6.28
2018-01-18T16:10:45.234Z,6.25
2018-01-18T16:13:12.686Z,6.29
2018-01-18T16:15:40.215Z,6.33
2018-01-18T16:18:07.670Z,6.23
2018-01-18T16:20:35.164Z,6.07
2018-01-18T16:23:02.656Z,5.98
2018-01-18T16:25:30.143Z,5.88
2018-01-18T16:27:57.597Z,5.89
2018-01-18T16:30:25.075Z,5.86
2018-01-18T16:32:52.534Z,5.82
2018-01-18T16:35:20.003Z,5.85
2018-01-18T16:37:47.463Z,5.86
2018-01-18T16:40:14.939Z,5.86
2018-01-18T16:42:42.394Z,5.86
2018-01-18T16:45:09.853Z,5.78
2018-01-18T16:47:37.378Z,5.75
2018-01-18T16:50:04.831Z,5.67
2018-01-18T16:52:32.311Z,5.64
2018-01-18T16:54:59.766Z,5.50
2018-01-18T16:57:27.287Z,5.35
2018-01-18T16:59:54.712Z,5.28
2018-01-18T17:02:22.204Z,5.26
2018-01-18T17:04:49.654Z,5.23
2018-01-18T17:07:17.121Z,5.26
2018-01-18T17:09:44.574Z,5.29
2018-01-18T17:12:12.082Z,5.36
2018-01-18T17:14:39.520Z,5.31
2018-01-18T17:17:06.990Z,5.20
2018-01-18T17:19:34.447Z,5.25
2018-01-18T17:22:01.940Z,5.21
2018-01-18T17:24:29.409Z,5.21
2018-01-18T17:26:56.883Z,5.16
2018-01-18T17:29:24.326Z,5.12
2018-01-18T17:31:51.797Z,5.03
2018-01-18T17:34:19.270Z,5.01
2018-01-18T17:36:46.741Z,5.08
2018-01-18T17:39:14.199Z,5.06
2018-01-18T17:41:41.684Z,5.05
2018-01-18T17:44:09.142Z,5.04
2018-01-18T17:46:36.615Z,5.02
2018-01-18T17:49:04.075Z,5.10
2018-01-18T17:51:31.536Z,5.10
2018-01-18T17:53:58.987Z,5.08
2018-01-18T17:56:26.459Z,5.07
2018-01-18T17:58:53.918Z,5.09
2018-01-18T18:01:21.385Z,4.91
2018-01-18T18:03:48.847Z,4.88
2018-01-18T18:06:16.318Z,4.83
2018-01-18T18:08:43.778Z,4.61
2018-01-18T18:11:11.231Z,4.50
2018-01-18T18:13:38.730Z,4.16
2018-01-18T18:16:06.192Z,4.13
2018-01-18T18:18:33.658Z,4.02
2018-01-18T18:21:01.118Z,4.19
2018-01-18T18:23:28.586Z,4.00
2018-01-18T18:25:56.048Z,3.85
2018-01-18T18:28:23.747Z,3.62
2018-01-18T18:30:51.202Z,3.65
2018-01-18T18:33:18.688Z,3.56
2018-01-18T18:35:46.151Z,3.62
2018-01-18T18:38:13.636Z,3.71
2018-01-18T18:40:41.096Z,3.99
2018-01-18T18:43:08.575Z,4.34
2018-01-18T18:45:36.028Z,4.47
2018-01-18T18:48:03.503Z,4.40
2018-01-18T18:50:30.954Z,4.35
2018-01-18T18:52:58.433Z,4.29
2018-01-18T18:55:25.879Z,4.20
2018-01-18T18:57:53.365Z,4.16
2018-01-18T19:00:20.819Z,4.33
2018-01-18T19:02:48.295Z,4.42
2018-01-18T19:05:15.748Z,4.47
2018-01-18T19:07:43.222Z,4.47
2018-01-18T19:10:10.672Z,4.45
2018-01-18T19:12:38.139Z,4.50
2018-01-18T19:15:05.590Z,4.52
2018-01-18T19:17:33.067Z,4.58
2018-01-18T19:20:00.523Z,4.60
2018-01-18T19:22:27.998Z,4.68
2018-01-18T19:24:55.448Z,4.73
2018-01-18T19:27:22.924Z,4.78
2018-01-18T19:29:50.410Z,4.89
2018-01-18T19:32:17.878Z,4.94
2018-01-18T19:34:45.348Z,5.18
2018-01-18T19:37:12.794Z,5.12
2018-01-18T19:39:40.271Z,5.20
2018-01-18T19:42:07.757Z,5.22
2018-01-18T19:44:35.232Z,5.26
2018-01-18T19:47:02.686Z,5.24
2018-01-18T19:49:30.155Z,5.31
2018-01-18T19:51:57.607Z,5.16
2018-01-18T19:54:25.083Z,5.07
2018-01-18T19:56:52.554Z,5.09
2018-01-18T19:59:20.019Z,5.07
2018-01-18T20:01:47.482Z,5.07
2018-01-18T20:04:15.943Z,5.02
2018-01-18T20:06:43.390Z,4.96
2018-01-18T20:09:10.859Z,4.91
2018-01-18T20:11:38.307Z,4.91
2018-01-18T20:14:05.790Z,4.84
2018-01-18T20:16:33.254Z,4.83
2018-01-18T20:19:00.732Z,4.85
2018-01-18T20:21:28.195Z,4.82
2018-01-18T20:23:55.688Z,4.84
2018-01-18T20:26:23.147Z,4.85
2018-01-18T20:28:50.638Z,4.72
2018-01-18T20:31:18.092Z,4.77
2018-01-18T20:33:45.680Z,4.73
2018-01-18T20:36:16.746Z,4.75
2018-01-18T20:38:44.223Z,4.66
2018-01-18T20:41:11.675Z,4.66
2018-01-18T20:43:39.149Z,4.69
2018-01-18T20:46:06.606Z,4.72
2018-01-18T20:48:36.086Z,4.71
2018-01-18T20:51:03.545Z,4.69
2018-01-18T20:53:31.023Z,4.70
2018-01-18T20:55:58.491Z,4.81
2018-01-18T20:58:25.947Z,4.85
2018-01-18T21:00:53.431Z,4.80
2018-01-18T21:03:20.892Z,4.78
2018-01-18T21:05:48.367Z,4.99
2018-01-18T21:08:15.823Z,4.94
2018-01-18T21:10:43.297Z,4.90
2018-01-18T21:13:10.747Z,4.83
2018-01-18T21:15:38.232Z,4.86
2018-01-18T21:18:05.723Z,4.87
2018-01-18T21:20:33.174Z,4.91
2018-01-18T21:23:00.646Z,4.83
2018-01-18T21:25:28.104Z,4.76
2018-01-18T21:27:55.642Z,4.74
2018-01-18T21:30:23.118Z,4.74
2018-01-18T21:32:50.601Z,4.71
2018-01-18T21:35:18.054Z,4.74
2018-01-18T21:37:45.498Z,4.58
2018-01-18T21:40:13.019Z,4.65
2018-01-18T21:42:40.472Z,4.62
2018-01-18T21:45:07.946Z,4.71
2018-01-18T21:47:35.403Z,4.65
2018-01-18T21:50:02.874Z,4.58
2018-01-18T21:52:30.328Z,4.60
2018-01-18T21:54:57.807Z,4.65
2018-01-18T21:57:25.263Z,4.64
2018-01-18T21:59:52.743Z,4.68
2018-01-18T22:02:20.202Z,4.79
2018-01-18T22:04:47.699Z,4.86
2018-01-18T22:07:15.164Z,4.93
2018-01-18T22:09:42.654Z,4.82
2018-01-18T22:12:10.135Z,4.83
2018-01-18T22:14:37.616Z,4.83
2018-01-18T22:17:05.074Z,4.77
2018-01-18T22:19:32.546Z,4.51
2018-01-18T22:22:00.006Z,4.53
2018-01-18T22:24:27.483Z,4.54
2018-01-18T22:26:54.935Z,4.49
2018-01-18T22:29:22.414Z,4.43
2018-01-18T22:31:49.876Z,4.32
2018-01-18T22:34:17.347Z,4.24
2018-01-18T22:36:44.833Z,4.20
2018-01-18T22:39:12.284Z,4.12
2018-01-18T22:41:39.758Z,4.12
2018-01-18T22:44:07.218Z,4.03
2018-01-18T22:46:34.703Z,3.98
